Time;durP1;ratioP1;P1;durP2;ratioP2;P2;SDS_P1;SDS_P2;PMS_P1;PMS_P2;Temp;Humidity;BMP_temperature;BMP_pressure;BME280_temperature;BME280_humidity;BME280_pressure;Samples;Min_cycle;Max_cycle;Signal;HPM_P1;HPM_P2
2023/01/03 00:00:36;;;;;;;65.45;49.63;;;14.40;78.00;;;;;;4919844;28;90218;-51
2023/01/03 00:03:02;;;;;;;64.45;49.60;;;14.40;77.90;;;;;;4909002;28;91421;-48
2023/01/03 00:05:28;;;;;;;63.50;49.45;;;14.40;77.80;;;;;;4900224;28;91314;-50
2023/01/03 00:07:54;;;;;;;66.13;50.20;;;14.40;77.90;;;;;;4910480;28;90259;-49
2023/01/03 00:10:20;;;;;;;64.53;50.17;;;14.40;78.00;;;;;;4906492;28;89946;-50
2023/01/03 00:12:46;;;;;;;64.70;50.20;;;14.30;77.80;;;;;;4910464;28;96710;-51
2023/01/03 00:15:14;;;;;;;63.70;49.28;;;14.30;77.80;;;;;;4912576;28;90607;-52
2023/01/03 00:17:41;;;;;;;65.30;50.38;;;14.30;77.80;;;;;;4922750;28;90606;-52
2023/01/03 00:20:08;;;;;;;63.70;49.92;;;14.30;77.80;;;;;;4903171;28;90742;-52
2023/01/03 00:22:34;;;;;;;64.30;49.60;;;14.30;77.80;;;;;;4915581;28;94250;-53
2023/01/03 00:25:00;;;;;;;66.07;49.97;;;14.30;77.70;;;;;;4914033;28;89718;-51
2023/01/03 00:27:26;;;;;;;64.50;49.58;;;14.30;77.70;;;;;;4909843;28;90582;-48
2023/01/03 00:29:52;;;;;;;64.63;49.67;;;14.30;77.50;;;;;;4902425;28;90010;-51
2023/01/03 00:32:18;;;;;;;65.00;49.80;;;14.30;77.60;;;;;;4904921;28;92128;-50
2023/01/03 00:34:45;;;;;;;64.75;50.28;;;14.30;77.60;;;;;;4905685;28;91307;-49
2023/01/03 00:37:12;;;;;;;63.03;49.67;;;14.20;77.60;;;;;;4907409;28;91227;-48
2023/01/03 00:39:37;;;;;;;64.60;49.53;;;14.30;77.60;;;;;;4905072;28;93276;-49
2023/01/03 00:42:03;;;;;;;65.40;49.97;;;14.20;77.60;;;;;;4907214;28;89479;-49
2023/01/03 00:44:29;;;;;;;65.15;49.55;;;14.20;77.60;;;;;;4909549;28;92574;-50
2023/01/03 00:46:56;;;;;;;63.28;49.65;;;14.20;77.40;;;;;;4904906;28;91304;-52
2023/01/03 00:49:22;;;;;;;63.45;49.47;;;14.20;77.50;;;;;;4905619;28;89859;-53
2023/01/03 00:51:48;;;;;;;65.40;50.35;;;14.20;78.20;;;;;;4904034;28;90799;-53
2023/01/03 00:54:15;;;;;;;64.40;50.15;;;14.20;77.20;;;;;;4911151;28;89743;-52
2023/01/03 00:56:43;;;;;;;64.20;49.83;;;14.20;77.40;;;;;;4907085;28;91198;-53
2023/01/03 00:59:09;;;;;;;63.50;49.60;;;14.10;77.20;;;;;;4904648;28;90524;-54
2023/01/03 01:01:46;;;;;;;63.45;49.65;;;14.20;77.30;;;;;;4911452;28;91403;-51
2023/01/03 01:04:23;;;;;;;65.80;49.78;;;14.10;77.30;;;;;;4906203;28;91660;-46
2023/01/03 01:06:51;;;;;;;64.60;49.83;;;14.10;77.10;;;;;;4912778;28;96807;-53
2023/01/03 01:09:27;;;;;;;64.18;49.70;;;14.20;77.30;;;;;;4905015;28;92036;-53
2023/01/03 01:11:53;;;;;;;62.80;49.80;;;14.10;77.20;;;;;;4912920;28;92375;-49
2023/01/03 01:14:21;;;;;;;64.13;49.95;;;14.20;77.10;;;;;;4917509;28;90242;-50
2023/01/03 01:16:56;;;;;;;64.38;50.00;;;14.10;77.10;;;;;;4913895;28;90069;-52
2023/01/03 01:19:26;;;;;;;64.40;49.70;;;14.10;77.10;;;;;;4913529;28;94918;-54
2023/01/03 01:21:51;;;;;;;62.80;49.33;;;14.10;77.10;;;;;;4902239;28;93194;-53
2023/01/03 01:24:17;;;;;;;63.28;49.85;;;14.10;77.10;;;;;;4917901;28;89974;-53
2023/01/03 01:26:44;;;;;;;63.97;49.88;;;14.00;77.20;;;;;;4901770;28;96586;-52
2023/01/03 01:29:11;;;;;;;63.58;49.70;;;14.10;77.10;;;;;;4916095;28;90219;-50
2023/01/03 01:31:37;;;;;;;63.50;49.78;;;14.00;77.00;;;;;;4905864;28;95070;-53
2023/01/03 01:34:03;;;;;;;65.53;49.88;;;14.00;77.10;;;;;;4896603;28;90755;-52
2023/01/03 01:36:31;;;;;;;63.38;49.88;;;14.00;77.10;;;;;;4900552;28;91946;-52
2023/01/03 01:39:00;;;;;;;63.78;49.53;;;14.10;77.10;;;;;;4905448;28;94184;-53
2023/01/03 01:44:43;;;;;;;64.03;49.65;;;14.00;76.90;;;;;;4907101;28;93343;-47
2023/01/03 01:47:14;;;;;;;64.47;50.17;;;14.00;77.00;;;;;;4907141;28;93393;-51
2023/01/03 01:49:40;;;;;;;62.87;49.27;;;14.00;76.90;;;;;;4903309;28;93011;-50
2023/01/03 01:52:08;;;;;;;63.80;49.65;;;14.00;77.00;;;;;;4902957;28;90873;-50
2023/01/03 01:54:33;;;;;;;61.85;49.08;;;14.00;77.00;;;;;;4906472;28;92721;-49
2023/01/03 01:56:59;;;;;;;63.38;49.58;;;14.00;76.90;;;;;;4902416;28;89841;-50
2023/01/03 01:59:27;;;;;;;63.53;49.80;;;14.00;76.90;;;;;;4910210;28;89661;-53
2023/01/03 02:01:53;;;;;;;64.03;50.05;;;14.00;76.80;;;;;;4912025;28;91390;-50
2023/01/03 02:04:24;;;;;;;63.80;49.72;;;13.90;76.70;;;;;;4908253;28;93207;-51
2023/01/03 02:06:51;;;;;;;62.10;49.13;;;13.90;76.80;;;;;;4910136;28;89726;-52
2023/01/03 02:09:16;;;;;;;63.10;49.78;;;13.90;76.80;;;;;;4916683;28;92573;-50
2023/01/03 02:11:42;;;;;;;62.40;49.25;;;13.90;76.70;;;;;;4912117;28;93147;-52
2023/01/03 02:14:43;;;;;;;64.47;49.85;;;13.90;76.80;;;;;;4905245;28;91844;-51
2023/01/03 02:17:37;;;;;;;63.47;49.42;;;13.90;76.70;;;;;;4913387;28;90212;-52
2023/01/03 02:20:10;;;;;;;61.85;49.38;;;13.80;76.70;;;;;;4914490;28;89700;-51
2023/01/03 02:22:47;;;;;;;63.58;49.72;;;13.90;76.60;;;;;;4906468;28;90023;-51
2023/01/03 02:25:22;;;;;;;62.65;49.38;;;13.80;76.70;;;;;;4905703;28;91241;-53
2023/01/03 02:28:26;;;;;;;62.03;49.30;;;13.90;76.70;;;;;;4905495;28;90921;-49
2023/01/03 02:31:00;;;;;;;62.22;49.38;;;13.80;76.60;;;;;;4900909;28;92507;-54
2023/01/03 02:33:45;;;;;;;62.42;49.53;;;13.90;76.60;;;;;;4897949;28;92709;-54
2023/01/03 02:36:40;;;;;;;62.28;49.65;;;13.80;76.70;;;;;;4906542;28;91688;-51
2023/01/03 02:39:15;;;;;;;61.90;49.30;;;13.80;76.60;;;;;;4906014;28;90130;-49
2023/01/03 02:42:56;;;;;;;62.70;49.03;;;13.80;76.80;;;;;;4908582;28;90439;-48
2023/01/03 02:45:04;;;;;;;62.55;49.20;;;13.80;76.50;;;;;;4909655;28;89744;-51
2023/01/03 02:47:42;;;;;;;62.70;49.25;;;13.80;76.60;;;;;;4911098;28;89192;-50
2023/01/03 02:50:11;;;;;;;62.58;49.67;;;13.80;76.50;;;;;;4908454;28;89880;-52
2023/01/03 02:52:40;;;;;;;62.85;49.60;;;13.80;76.60;;;;;;4907600;28;91860;-52
2023/01/03 02:55:23;;;;;;;62.88;49.53;;;13.80;76.50;;;;;;4903280;28;90962;-49
2023/01/03 02:58:01;;;;;;;62.35;49.10;;;13.80;76.40;;;;;;4906412;28;91070;-51
2023/01/03 03:00:29;;;;;;;62.20;49.45;;;13.80;76.30;;;;;;4902471;28;90122;-54
2023/01/03 03:03:00;;;;;;;62.00;49.22;;;13.80;76.30;;;;;;4907245;28;89952;-53
2023/01/03 03:05:31;;;;;;;61.67;48.93;;;13.80;76.20;;;;;;4921826;28;89750;-51
2023/01/03 03:07:57;;;;;;;61.38;48.60;;;13.80;76.20;;;;;;4915156;28;90264;-51
2023/01/03 03:13:37;;;;;;;61.70;49.15;;;13.80;76.20;;;;;;4916661;28;89969;-51
2023/01/03 03:16:10;;;;;;;62.30;49.47;;;13.80;76.30;;;;;;4901755;28;90038;-52
2023/01/03 03:18:51;;;;;;;61.92;48.95;;;13.80;76.20;;;;;;4903794;28;90656;-54
2023/01/03 03:24:48;;;;;;;63.22;49.05;;;13.80;76.00;;;;;;4899070;28;95313;-49
2023/01/03 03:28:33;;;;;;;61.50;49.28;;;13.80;76.10;;;;;;4898559;28;91611;-50
2023/01/03 03:29:55;;;;;;;61.30;48.95;;;13.80;76.00;;;;;;4911236;28;90247;-51
2023/01/03 03:32:25;;;;;;;63.58;49.28;;;13.80;76.20;;;;;;4913441;28;90042;-49
2023/01/03 03:34:54;;;;;;;62.22;49.03;;;13.80;76.00;;;;;;4912161;28;90525;-51
2023/01/03 03:37:23;;;;;;;62.13;49.33;;;13.80;76.10;;;;;;4911910;28;90081;-54
2023/01/03 03:45:34;;;;;;;61.92;48.63;;;13.80;76.10;;;;;;4909172;28;89548;-52
2023/01/03 03:48:04;;;;;;;62.63;49.40;;;13.80;75.90;;;;;;4902147;28;92326;-48
2023/01/03 03:50:49;;;;;;;61.85;49.15;;;13.80;75.90;;;;;;4909929;28;90811;-48
2023/01/03 03:53:19;;;;;;;61.95;49.08;;;13.80;75.80;;;;;;4915048;28;92580;-53
2023/01/03 03:56:11;;;;;;;62.28;49.33;;;13.80;76.00;;;;;;4917779;28;89606;-49
2023/01/03 03:58:39;;;;;;;;;;;13.80;75.80;;;;;;4911419;28;89820;-50
2023/01/03 04:01:07;;;;;;;61.65;49.35;;;13.80;75.90;;;;;;4916447;28;90113;-48
2023/01/03 04:03:33;;;;;;;61.95;49.20;;;13.80;75.80;;;;;;4914023;28;91972;-52
2023/01/03 04:06:05;;;;;;;61.85;49.08;;;13.80;75.80;;;;;;4907902;28;92175;-50
2023/01/03 04:08:31;;;;;;;62.85;49.65;;;13.80;75.90;;;;;;4920700;28;89633;-49
2023/01/03 04:11:04;;;;;;;62.28;49.08;;;13.80;75.80;;;;;;4901741;28;89591;-52
2023/01/03 04:13:34;;;;;;;62.88;49.70;;;13.80;75.90;;;;;;4897747;28;92732;-52
2023/01/03 04:16:01;;;;;;;63.05;49.42;;;13.80;75.70;;;;;;4902854;28;93383;-50
2023/01/03 04:18:26;;;;;;;63.22;49.45;;;13.80;75.80;;;;;;4911042;28;90254;-48
2023/01/03 04:20:52;;;;;;;62.35;49.10;;;13.80;75.80;;;;;;4897195;28;90198;-47
2023/01/03 04:23:18;;;;;;;63.17;49.45;;;13.80;75.70;;;;;;4909334;28;90982;-51
2023/01/03 04:25:43;;;;;;;62.97;49.65;;;13.80;75.60;;;;;;4909305;28;90066;-51
2023/01/03 04:28:09;;;;;;;64.03;49.65;;;13.80;75.50;;;;;;4914859;28;91136;-48
2023/01/03 04:30:35;;;;;;;62.97;49.60;;;13.80;75.50;;;;;;4906235;28;91953;-52
2023/01/03 04:33:04;;;;;;;63.03;49.53;;;13.80;75.60;;;;;;4900935;28;90044;-46
2023/01/03 04:35:33;;;;;;;63.40;49.58;;;13.80;75.60;;;;;;4907759;28;91091;-50
2023/01/03 04:37:59;;;;;;;62.28;49.05;;;13.80;75.50;;;;;;4908907;28;93359;-49
2023/01/03 04:40:25;;;;;;;63.28;49.65;;;13.80;75.50;;;;;;4905265;28;95348;-52
2023/01/03 04:45:37;;;;;;;62.55;49.60;;;13.80;75.50;;;;;;4905580;28;90996;-50
2023/01/03 04:48:03;;;;;;;62.15;49.53;;;13.80;75.60;;;;;;4914174;28;89518;-49
2023/01/03 04:50:29;;;;;;;62.55;49.85;;;13.80;75.50;;;;;;4908136;28;90039;-49
2023/01/03 04:52:55;;;;;;;62.92;49.58;;;13.80;75.50;;;;;;4903368;28;91557;-50
2023/01/03 04:55:21;;;;;;;62.30;49.70;;;13.80;75.60;;;;;;4913075;28;89414;-49
2023/01/03 04:57:47;;;;;;;61.67;49.38;;;13.80;75.60;;;;;;4904700;28;90746;-50
2023/01/03 05:00:13;;;;;;;62.25;49.20;;;13.80;75.70;;;;;;4903272;28;91003;-50
2023/01/03 05:02:38;;;;;;;63.55;49.97;;;13.80;75.60;;;;;;4901210;28;92618;-50
2023/01/03 05:05:05;;;;;;;64.05;49.72;;;13.80;75.50;;;;;;4901644;28;90768;-47
2023/01/03 05:07:30;;;;;;;64.28;49.78;;;13.80;75.50;;;;;;4901969;28;96181;-50
2023/01/03 05:09:56;;;;;;;64.32;49.78;;;13.80;75.60;;;;;;4904296;28;92297;-53
2023/01/03 05:12:22;;;;;;;62.08;49.40;;;13.70;75.50;;;;;;4904181;28;91020;-48
2023/01/03 05:14:47;;;;;;;62.25;49.72;;;13.70;75.50;;;;;;4910359;28;90193;-50
2023/01/03 05:17:13;;;;;;;62.63;49.72;;;13.70;75.50;;;;;;4897180;28;90173;-51
2023/01/03 05:25:48;;;;;;;62.67;50.45;;;13.70;75.60;;;;;;4906176;28;89722;-51
2023/01/03 05:27:55;;;;;;;63.50;50.53;;;13.70;75.50;;;;;;4892804;28;92818;-49
2023/01/03 05:30:20;;;;;;;63.20;50.05;;;13.70;75.50;;;;;;4902833;28;90243;-49
2023/01/03 05:32:46;;;;;;;64.18;50.40;;;13.70;75.50;;;;;;4899554;28;91327;-53
2023/01/03 05:35:12;;;;;;;63.70;50.30;;;13.70;75.40;;;;;;4905404;28;90109;-48
2023/01/03 05:37:37;;;;;;;64.32;50.28;;;13.70;75.50;;;;;;4903421;28;89866;-48
2023/01/03 05:40:03;;;;;;;64.20;50.65;;;13.70;75.50;;;;;;4897445;28;91679;-54
2023/01/03 05:42:29;;;;;;;62.40;49.83;;;13.70;75.60;;;;;;4903755;28;91207;-49
2023/01/03 05:44:55;;;;;;;66.88;51.72;;;13.70;75.60;;;;;;4901657;28;89570;-48
2023/01/03 05:47:20;;;;;;;64.20;50.47;;;13.70;75.50;;;;;;4902481;28;91436;-52
2023/01/03 05:49:46;;;;;;;64.03;50.05;;;13.70;75.50;;;;;;4903543;28;97140;-51
2023/01/03 05:52:11;;;;;;;65.30;50.67;;;13.70;75.50;;;;;;4903186;28;94508;-52
2023/01/03 05:54:37;;;;;;;65.03;50.83;;;13.70;75.30;;;;;;4918334;28;92946;-49
2023/01/03 05:57:03;;;;;;;64.32;50.35;;;13.70;75.30;;;;;;4893780;28;90376;-53
2023/01/03 05:59:28;;;;;;;64.15;50.65;;;13.70;75.20;;;;;;4903855;28;92971;-51
2023/01/03 06:01:54;;;;;;;63.65;50.58;;;13.70;75.20;;;;;;4904874;28;89866;-54
2023/01/03 06:04:20;;;;;;;65.43;51.42;;;13.70;75.30;;;;;;4919273;28;90110;-50
2023/01/03 06:06:45;;;;;;;64.25;50.97;;;13.70;75.20;;;;;;4914995;28;90699;-52
2023/01/03 06:09:11;;;;;;;64.30;50.67;;;13.70;75.20;;;;;;4908235;28;91136;-49
2023/01/03 06:11:39;;;;;;;64.78;51.42;;;13.70;75.20;;;;;;4904550;28;91534;-49
2023/01/03 06:14:05;;;;;;;65.18;51.17;;;13.70;75.30;;;;;;4911246;28;89717;-52
2023/01/03 06:19:15;;;;;;;65.93;51.20;;;13.70;75.30;;;;;;4904984;28;90167;-51
2023/01/03 06:21:41;;;;;;;65.05;50.90;;;13.70;75.20;;;;;;4905163;28;92357;-50
2023/01/03 06:24:07;;;;;;;65.45;51.08;;;13.70;75.00;;;;;;4919270;28;90365;-51
2023/01/03 06:26:33;;;;;;;65.43;51.25;;;13.70;75.20;;;;;;4902230;28;91192;-51
2023/01/03 06:28:59;;;;;;;65.47;51.28;;;13.70;75.00;;;;;;4907392;28;89988;-48
2023/01/03 06:31:24;;;;;;;65.15;51.42;;;13.70;75.20;;;;;;4906930;28;93157;-52
2023/01/03 06:33:50;;;;;;;67.07;50.95;;;13.70;75.00;;;;;;4899434;28;89874;-49
2023/01/03 06:36:19;;;;;;;65.90;51.17;;;13.70;75.10;;;;;;4891373;28;90197;-51
2023/01/03 06:38:45;;;;;;;63.95;50.95;;;13.80;75.00;;;;;;4901641;28;91665;-52
2023/01/03 06:41:11;;;;;;;67.70;51.58;;;13.80;74.90;;;;;;4910001;28;90853;-48
2023/01/03 06:43:37;;;;;;;64.13;51.22;;;13.90;74.90;;;;;;4907937;28;90809;-52
2023/01/03 06:54:21;;;;;;;67.57;51.40;;;13.90;74.60;;;;;;4907456;28;92120;-50
2023/01/03 06:56:48;;;;;;;66.10;50.83;;;14.00;74.60;;;;;;4913221;28;89954;-52
2023/01/03 06:59:14;;;;;;;69.03;51.60;;;14.00;74.50;;;;;;4909835;28;90885;-49
2023/01/03 07:01:40;;;;;;;66.70;51.03;;;13.90;74.80;;;;;;4908738;28;90110;-54
2023/01/03 07:04:05;;;;;;;65.22;51.67;;;13.90;74.80;;;;;;4905246;28;89996;-51
2023/01/03 07:06:31;;;;;;;67.20;51.45;;;13.90;74.90;;;;;;4910924;28;94104;-49
2023/01/03 07:08:57;;;;;;;66.40;50.88;;;13.90;74.90;;;;;;4909672;28;92239;-52
2023/01/03 07:11:22;;;;;;;67.43;51.17;;;13.90;75.00;;;;;;4904520;28;92513;-51
2023/01/03 07:13:59;;;;;;;65.28;51.05;;;13.90;74.80;;;;;;4907305;28;92103;-54
2023/01/03 07:16:27;;;;;;;66.22;50.97;;;13.90;75.10;;;;;;4909732;28;89726;-51
2023/01/03 07:18:53;;;;;;;65.63;51.20;;;13.90;75.00;;;;;;4901275;28;92163;-54
2023/01/03 07:21:19;;;;;;;67.03;51.03;;;13.90;75.10;;;;;;4909393;28;89750;-49
2023/01/03 07:23:45;;;;;;;65.30;51.10;;;13.90;75.00;;;;;;4905915;28;93110;-52
2023/01/03 07:26:11;;;;;;;66.88;51.30;;;13.90;75.00;;;;;;4908938;28;90188;-51
2023/01/03 07:28:36;;;;;;;64.88;50.72;;;13.90;74.80;;;;;;4906724;28;90109;-54
2023/01/03 07:31:04;;;;;;;64.53;50.78;;;13.90;75.00;;;;;;4909214;28;92055;-53
2023/01/03 07:33:31;;;;;;;64.90;50.83;;;13.90;74.90;;;;;;4909277;28;90408;-50
2023/01/03 07:36:05;;;;;;;65.97;50.97;;;13.90;74.90;;;;;;4902443;28;90822;-49
2023/01/03 07:38:31;;;;;;;65.35;50.97;;;13.90;74.90;;;;;;4902878;28;90172;-48
2023/01/03 07:41:01;;;;;;;64.38;50.72;;;13.90;75.00;;;;;;4899282;28;90189;-51
2023/01/03 07:43:36;;;;;;;64.60;50.60;;;13.90;75.00;;;;;;4904699;28;98918;-50
2023/01/03 07:46:19;;;;;;;64.70;50.35;;;13.90;75.00;;;;;;4912809;28;91917;-49
2023/01/03 07:48:47;;;;;;;65.15;50.45;;;13.90;75.00;;;;;;4907661;28;89132;-51
2023/01/03 07:51:15;;;;;;;64.07;50.38;;;13.90;75.00;;;;;;4908194;28;91194;-50
2023/01/03 07:53:41;;;;;;;64.68;50.28;;;13.90;75.00;;;;;;4906964;28;93639;-52
2023/01/03 07:56:12;;;;;;;67.20;51.08;;;13.90;75.20;;;;;;4907583;28;90821;-53
2023/01/03 07:58:39;;;;;;;64.15;50.28;;;13.90;75.10;;;;;;4908703;28;90357;-48
2023/01/03 08:01:07;;;;;;;65.13;50.88;;;13.90;75.00;;;;;;4897236;28;91970;-52
2023/01/03 08:03:33;;;;;;;64.75;50.33;;;13.90;75.00;;;;;;4903640;28;90526;-54
2023/01/03 08:06:04;;;;;;;63.78;49.95;;;13.90;75.00;;;;;;4903399;28;89847;-49
2023/01/03 08:08:31;;;;;;;65.07;50.27;;;13.90;75.00;;;;;;4905214;28;90000;-53
2023/01/03 08:13:42;;;;;;;64.25;50.28;;;13.90;75.00;;;;;;4907501;28;89466;-51
2023/01/03 08:16:10;;;;;;;63.80;49.63;;;13.90;75.00;;;;;;4911087;28;92746;-52
2023/01/03 08:18:38;;;;;;;64.10;49.78;;;14.00;75.00;;;;;;4920698;28;89967;-51
2023/01/03 08:21:04;;;;;;;63.92;49.97;;;13.90;74.90;;;;;;4905486;28;92865;-50
2023/01/03 08:23:29;;;;;;;63.60;50.05;;;13.90;75.00;;;;;;4909545;28;94986;-52
2023/01/03 08:26:03;;;;;;;63.15;49.80;;;13.90;74.80;;;;;;4902115;28;93546;-51
2023/01/03 08:28:29;;;;;;;64.10;50.53;;;13.90;74.90;;;;;;4912546;28;89975;-51
2023/01/03 08:30:55;;;;;;;63.78;49.75;;;13.90;75.00;;;;;;4908991;28;90738;-53
2023/01/03 08:33:21;;;;;;;64.15;50.17;;;14.00;75.10;;;;;;4906457;28;90858;-52
2023/01/03 08:35:59;;;;;;;64.28;50.03;;;13.90;74.90;;;;;;4906220;28;89725;-49
2023/01/03 08:38:29;;;;;;;65.45;50.08;;;14.00;75.00;;;;;;4916055;28;90658;-51
2023/01/03 08:40:56;;;;;;;65.15;50.22;;;13.90;74.90;;;;;;4905462;28;90749;-54
2023/01/03 08:43:22;;;;;;;65.00;50.13;;;14.00;75.00;;;;;;4920036;28;89407;-54
2023/01/03 08:45:48;;;;;;;63.58;49.78;;;14.00;75.20;;;;;;4898830;28;90489;-50
2023/01/03 08:48:15;;;;;;;65.38;49.75;;;13.90;75.00;;;;;;4914323;28;92453;-51
2023/01/03 08:50:41;;;;;;;63.65;49.60;;;13.90;75.10;;;;;;4907527;28;92143;-52
2023/01/03 08:53:07;;;;;;;63.03;49.67;;;14.00;75.00;;;;;;4913580;28;90524;-54
2023/01/03 08:55:33;;;;;;;63.45;49.97;;;14.00;75.00;;;;;;4905720;28;89751;-54
2023/01/03 08:57:59;;;;;;;62.97;49.75;;;14.00;75.00;;;;;;4914183;28;90567;-53
2023/01/03 09:00:25;;;;;;;63.30;49.47;;;14.00;75.00;;;;;;4908163;28;90158;-53
2023/01/03 09:02:51;;;;;;;63.80;50.17;;;14.00;75.00;;;;;;4903091;28;92147;-54
2023/01/03 09:05:17;;;;;;;64.97;49.53;;;14.00;75.00;;;;;;4900159;28;92503;-49
2023/01/03 09:07:42;;;;;;;64.70;49.97;;;14.00;75.20;;;;;;4911609;28;91973;-50
2023/01/03 09:10:09;;;;;;;65.05;49.95;;;14.00;75.00;;;;;;4899219;28;94567;-52
2023/01/03 09:12:34;;;;;;;65.30;50.15;;;14.00;75.10;;;;;;4899798;28;90944;-54
2023/01/03 09:15:00;;;;;;;63.85;49.58;;;14.00;74.90;;;;;;4908807;28;89784;-54
2023/01/03 09:17:27;;;;;;;63.53;49.42;;;14.00;75.00;;;;;;4903938;28;90030;-51
2023/01/03 09:19:53;;;;;;;64.55;49.70;;;14.00;75.00;;;;;;4897913;28;90767;-49
2023/01/03 09:22:18;;;;;;;65.65;49.58;;;14.00;75.10;;;;;;4903775;28;92250;-50
2023/01/03 09:24:44;;;;;;;64.32;49.38;;;14.00;75.00;;;;;;4904310;28;89640;-49
2023/01/03 09:27:09;;;;;;;65.13;49.53;;;14.00;75.10;;;;;;4907393;28;90856;-53
2023/01/03 09:29:35;;;;;;;63.22;49.50;;;14.00;75.00;;;;;;4906881;28;90520;-53
2023/01/03 09:32:02;;;;;;;62.95;49.30;;;14.00;75.10;;;;;;4905380;28;89799;-53
2023/01/03 09:34:28;;;;;;;62.92;49.17;;;14.00;74.80;;;;;;4917269;28;93106;-50
2023/01/03 09:36:54;;;;;;;63.65;49.35;;;14.00;74.80;;;;;;4902447;28;90815;-49
2023/01/03 09:39:19;;;;;;;64.35;49.50;;;14.00;74.90;;;;;;4916664;28;92021;-49
2023/01/03 09:43:11;;;;;;;63.78;49.35;;;14.00;75.00;;;;;;4907991;28;90084;-52
2023/01/03 09:44:31;;;;;;;66.00;49.80;;;14.00;75.00;;;;;;4911743;28;91424;-49
2023/01/03 09:46:57;;;;;;;63.90;49.30;;;14.00;74.90;;;;;;4906838;28;91248;-51
2023/01/03 09:49:23;;;;;;;64.20;49.53;;;14.00;74.90;;;;;;4909461;28;93122;-52
2023/01/03 10:03:42;;;;;;;62.13;49.28;;;14.10;74.70;;;;;;4903053;28;90524;-51
2023/01/03 10:06:19;;;;;;;63.38;49.40;;;14.10;74.80;;;;;;4901182;28;92148;-51
2023/01/03 10:09:06;;;;;;;63.90;49.28;;;14.10;74.70;;;;;;4905102;28;89950;-53
2023/01/03 10:11:58;;;;;;;64.15;49.35;;;14.10;74.70;;;;;;4901449;28;89596;-50
2023/01/03 10:14:39;;;;;;;64.05;48.80;;;14.10;74.80;;;;;;4907117;28;93093;-53
2023/01/03 10:17:37;;;;;;;63.67;49.30;;;14.10;74.80;;;;;;4907286;28;89602;-53
2023/01/03 10:20:11;;;;;;;62.92;49.70;;;14.00;74.60;;;;;;4894707;28;91167;-48
2023/01/03 10:22:37;;;;;;;64.38;49.47;;;14.10;74.60;;;;;;4909292;28;90706;-48
2023/01/03 10:25:03;;;;;;;64.93;49.53;;;14.10;74.80;;;;;;4898828;28;92341;-52
2023/01/03 10:27:33;;;;;;;63.83;49.33;;;14.10;74.70;;;;;;4902839;28;91824;-54
2023/01/03 10:30:05;;;;;;;65.47;49.50;;;14.10;74.70;;;;;;4902645;28;90161;-55
2023/01/03 10:32:43;;;;;;;66.60;49.65;;;14.10;75.10;;;;;;4905329;28;90552;-51
2023/01/03 10:35:28;;;;;;;66.93;49.88;;;14.10;75.00;;;;;;4905577;28;90677;-54
2023/01/03 10:37:56;;;;;;;64.75;50.05;;;14.00;75.70;;;;;;4897697;28;96881;-52
2023/01/03 10:40:50;;;;;;;67.55;49.45;;;14.00;75.90;;;;;;4902072;28;89432;-50
2023/01/03 10:43:26;;;;;;;64.65;49.85;;;14.00;76.00;;;;;;4905927;28;91402;-52
2023/01/03 10:45:54;;;;;;;64.50;49.95;;;14.00;76.20;;;;;;4914784;28;90624;-52
2023/01/03 10:48:20;;;;;;;65.60;49.83;;;14.00;76.80;;;;;;4908985;28;95175;-53
2023/01/03 10:50:46;;;;;;;78.10;58.95;;;14.20;76.30;;;;;;4913679;28;90981;-51
2023/01/03 10:53:14;;;;;;;80.93;59.42;;;14.20;75.80;;;;;;4900674;28;91209;-50
2023/01/03 10:55:46;;;;;;;81.60;57.65;;;14.20;76.10;;;;;;4906223;28;91306;-50
2023/01/03 10:58:25;;;;;;;85.65;57.78;;;14.30;75.70;;;;;;4902447;28;91014;-49
2023/01/03 11:00:52;;;;;;;75.70;56.17;;;14.40;75.60;;;;;;4908705;28;89746;-48
2023/01/03 11:03:21;;;;;;;76.43;56.05;;;14.40;75.80;;;;;;4912703;28;90077;-51
2023/01/03 11:05:56;;;;;;;76.80;55.50;;;14.50;75.80;;;;;;4907886;28;89900;-51
2023/01/03 11:08:33;;;;;;;74.95;55.42;;;14.50;75.50;;;;;;4905352;28;91321;-51
2023/01/03 11:11:00;;;;;;;74.38;53.60;;;14.60;75.50;;;;;;4905654;28;88856;-53
2023/01/03 11:13:35;;;;;;;75.45;54.20;;;14.60;75.40;;;;;;4899723;28;92258;-51
2023/01/03 11:16:03;;;;;;;70.47;53.03;;;14.60;75.40;;;;;;4910807;28;94279;-50
2023/01/03 11:18:30;;;;;;;73.47;53.55;;;14.70;75.30;;;;;;4902011;28;90937;-54
2023/01/03 11:21:09;;;;;;;73.57;53.42;;;14.70;75.00;;;;;;4905310;28;92704;-49
2023/01/03 11:23:34;;;;;;;74.80;53.33;;;14.80;74.70;;;;;;4901727;28;92413;-51
2023/01/03 11:26:21;;;;;;;75.40;52.78;;;14.80;74.70;;;;;;4909374;28;90961;-49
2023/01/03 11:29:21;;;;;;;72.85;52.83;;;14.80;74.70;;;;;;4913157;28;89586;-53
2023/01/03 11:32:22;;;;;;;71.10;53.25;;;14.80;75.00;;;;;;4919934;28;91544;-49
2023/01/03 11:35:12;;;;;;;73.03;53.10;;;14.80;75.00;;;;;;4903775;28;90670;-48
2023/01/03 11:37:56;;;;;;;71.53;53.23;;;14.80;74.90;;;;;;4901043;28;89517;-46
2023/01/03 11:40:57;;;;;;;72.63;52.47;;;14.80;74.90;;;;;;4910458;28;92255;-49
2023/01/03 11:44:00;;;;;;;73.63;52.80;;;14.80;74.60;;;;;;4909537;28;90536;-47
2023/01/03 11:46:41;;;;;;;77.90;54.75;;;14.80;74.60;;;;;;4905675;28;92837;-50
2023/01/03 11:49:13;;;;;;;72.03;53.55;;;14.80;74.60;;;;;;4899910;28;93190;-47
2023/01/03 11:51:38;;;;;;;;;;;14.80;74.50;;;;;;4903759;28;89682;-47
2023/01/03 11:54:40;;;;;;;73.95;53.28;;;14.80;74.50;;;;;;4914156;28;89970;-53
2023/01/03 11:57:23;;;;;;;74.82;52.83;;;14.90;74.70;;;;;;4904372;28;91362;-48
2023/01/03 11:59:57;;;;;;;69.65;52.28;;;14.90;74.60;;;;;;4897830;28;90520;-49
2023/01/03 12:02:56;;;;;;;72.20;52.35;;;14.90;74.10;;;;;;4905223;28;92516;-51
2023/01/03 12:05:40;;;;;;;77.03;52.47;;;15.00;73.90;;;;;;4904165;28;96703;-49
2023/01/03 12:08:11;;;;;;;72.38;52.40;;;15.00;74.10;;;;;;4900906;28;90969;-50
2023/01/03 12:11:12;;;;;;;71.25;52.15;;;15.00;74.20;;;;;;4888578;28;94148;-47
2023/01/03 12:14:02;;;;;;;70.55;51.67;;;15.00;74.30;;;;;;4903871;28;91800;-47
2023/01/03 12:16:46;;;;;;;74.63;52.15;;;15.00;74.30;;;;;;4913032;28;91390;-49
2023/01/03 12:20:04;;;;;;;73.57;52.63;;;15.00;74.00;;;;;;4899217;28;93690;-55
2023/01/03 12:22:36;;;;;;;74.75;52.85;;;15.00;74.00;;;;;;4901893;28;90488;-56
2023/01/03 12:25:16;;;;;;;71.47;52.55;;;15.00;74.70;;;;;;4925550;28;91787;-53
2023/01/03 12:27:52;;;;;;;75.32;52.10;;;15.10;74.00;;;;;;4921703;28;90321;-55
2023/01/03 12:30:18;;;;;;;72.75;52.13;;;15.00;73.70;;;;;;4909833;28;90293;-47
2023/01/03 12:32:58;;;;;;;74.22;51.55;;;15.00;73.50;;;;;;4900497;28;89359;-53
2023/01/03 12:35:44;;;;;;;73.22;52.00;;;15.00;73.50;;;;;;4890916;28;90240;-54
2023/01/03 12:38:11;;;;;;;70.50;51.17;;;14.90;73.70;;;;;;4909760;28;90440;-57
2023/01/03 12:40:50;;;;;;;73.10;51.95;;;14.90;73.50;;;;;;4899431;28;93142;-57
2023/01/03 12:43:32;;;;;;;73.38;52.38;;;14.90;73.20;;;;;;4905278;28;92270;-50
2023/01/03 12:46:06;;;;;;;75.25;53.10;;;14.90;73.00;;;;;;4907547;28;91279;-48
2023/01/03 12:48:55;;;;;;;76.63;52.20;;;14.90;72.20;;;;;;4898491;28;94761;-51
2023/01/03 12:51:26;;;;;;;73.40;51.55;;;15.00;72.70;;;;;;4905481;28;92107;-48
2023/01/03 12:54:13;;;;;;;73.25;51.60;;;15.00;72.50;;;;;;4898968;28;90649;-48
2023/01/03 12:57:05;;;;;;;70.90;51.50;;;15.10;71.80;;;;;;4903233;28;91938;-50
2023/01/03 12:59:52;;;;;;;75.13;52.13;;;15.20;71.30;;;;;;4899421;28;89096;-51
2023/01/03 13:02:26;;;;;;;83.40;55.72;;;15.30;70.90;;;;;;4903763;28;90336;-54
2023/01/03 13:04:58;;;;;;;79.22;54.42;;;15.40;71.20;;;;;;4891295;28;96100;-54
2023/01/03 13:07:26;;;;;;;;;;;15.40;71.70;;;;;;4905085;28;92127;-53
2023/01/03 13:09:57;;;;;;;76.10;53.90;;;15.30;71.90;;;;;;4899660;28;91428;-49
2023/01/03 13:12:27;;;;;;;74.68;53.97;;;15.30;72.10;;;;;;4902452;28;91736;-50
2023/01/03 13:15:16;;;;;;;80.60;53.70;;;15.30;72.20;;;;;;4903701;28;91664;-48
2023/01/03 13:17:47;;;;;;;78.63;53.45;;;15.40;72.40;;;;;;4898068;28;94069;-48
2023/01/03 13:20:13;;;;;;;;;;;15.30;72.20;;;;;;4899234;28;92970;-49
2023/01/03 13:22:50;;;;;;;78.35;54.65;;;15.40;72.30;;;;;;4894953;28;90758;-50
2023/01/03 13:25:40;;;;;;;77.38;54.17;;;15.50;72.10;;;;;;4911517;28;91663;-57
2023/01/03 13:28:18;;;;;;;75.50;53.80;;;15.50;71.80;;;;;;4905933;28;90117;-56
2023/01/03 13:30:44;;;;;;;79.00;53.13;;;15.50;71.60;;;;;;4901973;28;91482;-55
2023/01/03 13:33:09;;;;;;;80.30;53.30;;;15.40;71.80;;;;;;4904622;28;96187;-56
2023/01/03 13:35:50;;;;;;;77.22;55.15;;;15.50;71.80;;;;;;4904165;28;92237;-49
2023/01/03 13:38:19;;;;;;;77.60;53.97;;;15.60;71.60;;;;;;4895151;28;91379;-49